LIBDLOWW

Guest
Details From LIBD - Bari Palese Macchie
To LOWW - Wien Schwechat
Flight Number -
Tags Generated
Created
Modified
Stats Distance 420 nm / 777 km
Max Altitude 0 ft / 0 m
Waypoints 3
Social Downloads 0
Likes 0
Share VATSIM

Download

Looking for another format? Having issues loading an existing format? Contact us
Advertisement - Login to hide

Notes

Generated

Route

LIBD BRK63 LOWW

ID Type Via Altitude Latitude Longitude Leg Dist Tot Dist Heading (true) Name
O LIBD APT - 0 ft / 0 m 41.13463˚ 16.74687˚ - 0 nm - -
BRK63 FIX - 0 ft / 0 m 48.11032˚ 16.57690˚ 419 nm 419 nm 359° / 359° -
O LOWW APT - 0 ft / 0 m 48.11978˚ 16.57818˚ 0 nm 419 nm 5° / 5° -

Altitude Profile

Advertisement - Login to hide

Weather


0- 5 10 15 20 25 30 35+ Temperature / ° C

Clouds and Precipitation
Forecast for 2017-12-15 18:00 UTC. Updated 32 minutes ago

Ground ~20,000 ft ~40,000 ft Winds

LIBD

Details ICAO LIBD (BRI)
Name Bari Palese Macchie
Region Italy
Timezone Europe/Rome (UTC+1.0)
Stats Elevation 177 ft / 54 m (AMSL)
Location 41.137865° 16.758318°
Runways 1
Magnetic Variation 3.737° E

METAR

LIBD 151520Z VRB05KT CAVOK 15/08 Q1005

Decode

TAF

TAF LIBD 151100Z 1512/1612 22014KT 9999 SCT030 TEMPO 1522/1606 RA= TAF LIBP 151100Z 1512/1612 22016KT 9999 SCT030 BECMG 1516/1518 34008KT TEMPO 1515/1603 4000 SHRA

Decode

Departure Runways

ID Width Length Bearing (true) Bearing (mag) Surface Threshold Offset Overrun Length
07 148 ft / 45 m 9,262 ft / 2,823 m 69.39° 65.65° Asphalt 1,257 ft / 383 m 0 ft / 0 m
25 148 ft / 45 m 9,262 ft / 2,823 m 249.42° 245.68° Asphalt 0 ft / 0 m 194 ft / 59 m

LOWW

Details ICAO LOWW (VIE)
Name Wien Schwechat
Region Austria
Timezone Europe/Vienna (UTC+1.0)
Stats Elevation 600 ft / 183 m (AMSL)
Location 48.110068° 16.569637°
Runways 2
Magnetic Variation 4.257° E

METAR

LOWW 151520Z 29010KT 9999 FEW040 BKN120 06/M01 Q1001 NOSIG

Decode

TAF

TAF AMD LOWW 151229Z 1512/1618 30010KT 9999 FEW050 SCT120 BKN300 TX07/1513Z TN00/1600Z TEMPO 1512/1518 30018KT BECMG 1600/1604 BKN030 TEMPO 1604/1618 30018KT

Decode

Destination Runways

ID Width Length Bearing (true) Bearing (mag) Surface Threshold Offset Overrun Length
11 148 ft / 45 m 11,457 ft / 3,492 m 115.99° 111.73° Asphalt 0 ft / 0 m 0 ft / 0 m
16 148 ft / 45 m 11,811 ft / 3,600 m 164.23° 159.97° Asphalt 0 ft / 0 m 33 ft / 10 m
29 148 ft / 45 m 11,457 ft / 3,492 m 296.03° 291.77° Asphalt 0 ft / 0 m 0 ft / 0 m
34 148 ft / 45 m 11,811 ft / 3,600 m 344.24° 339.98° Asphalt 0 ft / 0 m 0 ft / 0 m

Approach Navaids

Runway Type Ident Frequency Range Bearing (true) Bearing (mag) Slope Elevation
11 Localiser OEW 110.30 MHz 18 nm / 33 km 116.04° 111.78° - 600 ft / 183 m (AMSL)
11 Glidescope OEW 110.30 MHz 10 nm / 19 km 116.01° 111.75° 3.10° 593 ft / 181 m (AMSL)
11 DME OEW 110.30 MHz 18 nm / 33 km - - - 593 ft / 181 m (AMSL)
16 Localiser OEZ 108.50 MHz 18 nm / 33 km 164.25° 160.00° - 600 ft / 183 m (AMSL)
16 Glidescope OEZ 108.50 MHz 10 nm / 19 km 164.24° 159.98° 3.00° 610 ft / 186 m (AMSL)
16 DME OEZ 108.50 MHz 18 nm / 33 km - - - 610 ft / 186 m (AMSL)
29 Localiser OEX 109.55 MHz 18 nm / 33 km 295.98° 291.72° - 600 ft / 183 m (AMSL)
29 Glidescope OEX 109.55 MHz 10 nm / 19 km 296.01° 291.75° 3.00° 624 ft / 190 m (AMSL)
29 DME OEX 109.55 MHz 18 nm / 33 km - - - 624 ft / 190 m (AMSL)
34 Localiser OEN 108.10 MHz 18 nm / 33 km 344.21° 339.96° - 600 ft / 183 m (AMSL)
34 Glidescope OEN 108.10 MHz 10 nm / 19 km 344.24° 339.98° 3.00° 604 ft / 184 m (AMSL)
34 DME OEN 108.10 MHz 18 nm / 33 km - - - 572 ft / 174 m (AMSL)

Popular Alternatives